Morales, Texas
Current Conditions -  °F | °C
As of 9:51 AM on Friday 28 Nov 2014 (Local Time) from KVCT Reporting Station
Scattered Clouds Scattered Clouds  
Wind Chill: 64°   Ceiling: Unl
Heat Index: 64°   Visibility: 10mi
Dew Point: 56°   Wind: 7mph
Humidity: 75%   Direction: 140°SE
Pressure: 30.34"   Gusts: NA
Location:  29.0129°N, 96.6883°W
Report Text: KVCT 281551Z 14006KT 10SM SCT050 18/13 A3034 RMK AO2 SLP273 T01780133
Loading
Personal Weather Stations






























Interactive Weather Map New forecast layout! Learn more

10-Day Weather Forecast

Advertisements
Track Severe Weather on mobile